createdAt,value
2023-01-02T00:00:19.155Z,2.28
2023-01-02T00:02:54.453Z,2.58
2023-01-02T00:05:31.702Z,1.95
2023-01-02T00:08:05.447Z,2.13
2023-01-02T00:10:38.596Z,2.38
2023-01-02T00:13:14.275Z,2.47
2023-01-02T00:15:44.336Z,2.10
2023-01-02T00:18:14.836Z,2.40
2023-01-02T00:20:50.289Z,2.40
2023-01-02T00:23:26.920Z,2.30
2023-01-02T00:26:02.848Z,2.10
2023-01-02T00:28:44.037Z,2.25
2023-01-02T00:31:24.300Z,2.10
2023-01-02T00:34:01.676Z,2.42
2023-01-02T00:36:36.835Z,2.03
2023-01-02T00:39:15.336Z,2.55
2023-01-02T00:41:57.098Z,2.63
2023-01-02T00:44:29.306Z,2.72
2023-01-02T00:47:05.082Z,2.00
2023-01-02T00:49:41.363Z,2.38
2023-01-02T00:52:18.065Z,2.28
2023-01-02T00:54:56.973Z,1.95
2023-01-02T00:57:27.041Z,1.67
2023-01-02T00:59:57.521Z,2.22
2023-01-02T01:02:31.895Z,2.28
2023-01-02T01:05:05.563Z,1.95
2023-01-02T01:07:42.703Z,2.25
2023-01-02T01:10:18.226Z,2.00
2023-01-02T01:12:56.691Z,2.28
2023-01-02T01:15:27.795Z,1.85
2023-01-02T01:18:03.254Z,2.08
2023-01-02T01:20:38.561Z,2.00
2023-01-02T01:23:11.372Z,1.73
2023-01-02T01:25:42.417Z,2.38
2023-01-02T01:28:18.374Z,2.13
2023-01-02T01:30:48.866Z,2.38
2023-01-02T01:33:24.127Z,2.20
2023-01-02T01:36:03.132Z,2.05
2023-01-02T01:38:36.485Z,2.40
2023-01-02T01:41:22.911Z,1.98
2023-01-02T01:44:52.189Z,2.38
2023-01-02T01:47:31.239Z,2.45
2023-01-02T01:53:26.164Z,2.67
2023-01-02T01:56:05.024Z,2.33
2023-01-02T01:58:44.267Z,2.50
2023-01-02T02:01:17.330Z,2.58
2023-01-02T02:03:56.056Z,2.20
2023-01-02T02:06:29.512Z,1.92
2023-01-02T02:09:27.252Z,2.53
2023-01-02T02:12:00.656Z,2.40
2023-01-02T02:14:33.877Z,2.10
2023-01-02T02:17:15.939Z,2.13
2023-01-02T02:20:00.939Z,2.53
2023-01-02T02:23:08.812Z,2.40
2023-01-02T02:26:15.240Z,1.88
2023-01-02T02:29:37.691Z,2.30
2023-01-02T02:32:35.896Z,2.10
2023-01-02T02:35:34.000Z,1.98
2023-01-02T02:38:44.795Z,2.22
2023-01-02T02:41:57.068Z,2.28
2023-01-02T02:44:42.784Z,2.70
2023-01-02T02:47:23.791Z,2.80
2023-01-02T02:50:22.944Z,3.25
2023-01-02T02:53:01.486Z,3.00
2023-01-02T02:56:02.077Z,3.08
2023-01-02T02:58:33.940Z,3.22
2023-01-02T03:01:17.577Z,2.80
2023-01-02T03:03:53.446Z,2.45
2023-01-02T03:06:44.883Z,2.90
2023-01-02T03:09:35.423Z,2.70
2023-01-02T03:12:44.591Z,2.38
2023-01-02T03:15:40.111Z,2.67
2023-01-02T03:18:33.773Z,2.55
2023-01-02T03:21:10.471Z,3.05
2023-01-02T03:23:46.983Z,2.63
2023-01-02T03:26:26.646Z,2.33
2023-01-02T03:29:07.877Z,2.60
2023-01-02T03:31:43.219Z,2.45
2023-01-02T03:34:19.680Z,2.15
2023-01-02T03:37:01.230Z,2.75
2023-01-02T03:39:37.964Z,2.75
2023-01-02T03:42:29.909Z,2.47
2023-01-02T03:45:03.771Z,2.22
2023-01-02T03:48:07.751Z,1.70
2023-01-02T03:51:02.648Z,2.08
2023-01-02T03:53:37.383Z,2.90
2023-01-02T03:56:30.786Z,2.08
2023-01-02T03:59:03.414Z,1.75
2023-01-02T04:02:06.301Z,2.17
2023-01-02T04:04:55.954Z,1.50
2023-01-02T04:08:00.720Z,1.80
2023-01-02T04:10:32.725Z,1.58
2023-01-02T04:13:23.613Z,2.10
2023-01-02T04:16:09.122Z,1.92
2023-01-02T04:18:50.506Z,1.80
2023-01-02T04:21:45.000Z,2.65
2023-01-02T04:24:21.057Z,1.90
2023-01-02T04:27:10.954Z,1.80
2023-01-02T04:29:47.410Z,1.67
2023-01-02T04:32:46.790Z,1.85
2023-01-02T04:35:21.237Z,1.75
2023-01-02T04:37:56.139Z,2.05
2023-01-02T04:40:41.307Z,2.17
2023-01-02T04:43:21.241Z,2.03
2023-01-02T04:45:51.865Z,1.90
2023-01-02T04:48:24.903Z,1.67
2023-01-02T04:51:00.528Z,1.90
2023-01-02T04:53:33.596Z,1.40
2023-01-02T04:56:09.299Z,1.40
2023-01-02T04:58:46.560Z,1.73
2023-01-02T05:01:19.354Z,1.50
2023-01-02T05:06:37.081Z,1.40
2023-01-02T05:09:10.580Z,1.48
2023-01-02T05:11:41.736Z,1.83
2023-01-02T05:14:20.615Z,1.40
2023-01-02T05:16:53.753Z,1.50
2023-01-02T05:19:26.597Z,1.40
2023-01-02T05:22:19.718Z,1.85
2023-01-02T05:24:57.949Z,1.33
2023-01-02T05:27:39.170Z,1.30
2023-01-02T05:30:12.741Z,1.40
2023-01-02T05:32:52.360Z,1.48
2023-01-02T05:35:31.912Z,1.42
2023-01-02T05:38:13.379Z,2.03
2023-01-02T05:40:46.418Z,1.83
2023-01-02T05:43:16.862Z,1.38
2023-01-02T05:45:46.752Z,1.67
2023-01-02T05:48:22.881Z,1.50
2023-01-02T05:51:12.946Z,1.50
2023-01-02T05:53:46.696Z,1.30
2023-01-02T05:56:19.808Z,1.70
2023-01-02T05:58:51.683Z,1.20
2023-01-02T06:01:36.248Z,1.65
2023-01-02T06:04:19.652Z,1.67
2023-01-02T06:06:53.267Z,1.58
2023-01-02T06:09:31.546Z,1.58
2023-01-02T06:12:04.561Z,1.50
2023-01-02T06:14:35.040Z,1.70
2023-01-02T06:17:07.830Z,1.60
2023-01-02T06:19:50.269Z,1.67
2023-01-02T06:22:26.801Z,1.48
2023-01-02T06:25:00.207Z,1.30
2023-01-02T06:27:34.110Z,1.40
2023-01-02T06:30:05.045Z,1.40
2023-01-02T06:32:37.526Z,1.50
2023-01-02T06:35:22.209Z,1.60
2023-01-02T06:37:57.810Z,1.70
2023-01-02T06:40:42.499Z,1.50
2023-01-02T06:43:15.725Z,1.20
2023-01-02T06:45:52.581Z,1.50
2023-01-02T06:51:03.487Z,1.63
2023-01-02T06:53:38.365Z,1.23
2023-01-02T06:56:49.033Z,1.50
2023-01-02T06:59:21.852Z,1.60
2023-01-02T07:01:57.253Z,1.38
2023-01-02T07:04:27.324Z,1.75
2023-01-02T07:06:57.831Z,1.98
2023-01-02T07:09:34.833Z,1.50
2023-01-02T07:12:10.279Z,1.50
2023-01-02T07:14:48.981Z,1.50
2023-01-02T07:17:25.094Z,1.40
2023-01-02T07:20:01.733Z,1.45
2023-01-02T07:22:32.878Z,1.80
2023-01-02T07:25:03.246Z,1.50
2023-01-02T07:27:36.702Z,1.80
2023-01-02T07:30:08.154Z,1.55
2023-01-02T07:32:48.245Z,1.60
2023-01-02T07:35:22.163Z,1.55
2023-01-02T07:37:59.925Z,1.55
2023-01-02T07:40:42.100Z,1.60
2023-01-02T07:43:12.147Z,1.73
2023-01-02T07:45:49.774Z,1.80
2023-01-02T07:48:20.814Z,1.40
2023-01-02T07:50:51.314Z,1.55
2023-01-02T07:53:24.658Z,1.55
2023-01-02T07:56:01.094Z,1.58
2023-01-02T07:58:43.527Z,1.58
2023-01-02T08:01:16.945Z,1.58
2023-01-02T08:03:47.157Z,1.55
2023-01-02T08:06:23.447Z,1.45
2023-01-02T08:08:56.035Z,1.42
2023-01-02T08:11:33.210Z,1.60
2023-01-02T08:14:07.022Z,1.30
2023-01-02T08:16:37.510Z,1.35
2023-01-02T08:19:19.319Z,1.50
2023-01-02T08:21:54.638Z,1.60
2023-01-02T08:24:27.768Z,1.50
2023-01-02T08:27:01.015Z,1.60
2023-01-02T08:29:41.879Z,1.27
2023-01-02T08:32:23.689Z,1.60
2023-01-02T08:34:53.922Z,1.60
2023-01-02T08:37:27.591Z,1.50
2023-01-02T08:40:03.043Z,1.60
2023-01-02T08:42:39.098Z,1.50
2023-01-02T08:45:12.038Z,1.58
2023-01-02T08:47:42.543Z,1.00
2023-01-02T08:50:12.657Z,1.35
2023-01-02T08:52:47.420Z,1.80
2023-01-02T08:55:27.755Z,1.75
2023-01-02T08:58:01.160Z,1.38
2023-01-02T09:00:54.079Z,1.40
2023-01-02T09:03:30.310Z,1.58
2023-01-02T09:06:06.252Z,1.45
2023-01-02T09:08:36.676Z,1.52
2023-01-02T09:11:18.925Z,1.42
2023-01-02T09:13:56.554Z,1.58
2023-01-02T09:16:30.412Z,1.40
2023-01-02T09:19:07.307Z,1.40
2023-01-02T09:21:37.486Z,1.33
2023-01-02T09:24:08.516Z,1.65
2023-01-02T09:26:43.623Z,1.73
2023-01-02T09:29:17.512Z,1.45
2023-01-02T09:31:53.250Z,1.40
2023-01-02T09:34:26.235Z,1.88
2023-01-02T09:36:59.331Z,1.13
2023-01-02T09:42:21.923Z,1.30
2023-01-02T09:45:08.209Z,1.38
2023-01-02T09:47:46.987Z,1.60
2023-01-02T09:50:27.670Z,1.50
2023-01-02T09:53:18.723Z,1.33
2023-01-02T09:56:06.228Z,1.65
2023-01-02T09:59:06.380Z,1.38
2023-01-02T10:01:45.319Z,1.35
2023-01-02T10:04:29.571Z,1.90
2023-01-02T10:07:25.331Z,1.40
2023-01-02T10:10:17.953Z,1.40
2023-01-02T10:13:06.923Z,1.55
2023-01-02T10:15:58.670Z,1.70
2023-01-02T10:18:44.340Z,1.60
2023-01-02T10:21:30.263Z,1.50
2023-01-02T10:24:41.319Z,1.90
2023-01-02T10:27:25.886Z,1.48
2023-01-02T10:30:23.416Z,1.70
2023-01-02T10:33:20.623Z,1.50
2023-01-02T10:35:59.360Z,2.17
2023-01-02T10:38:48.763Z,1.70
2023-01-02T10:41:24.496Z,2.67
2023-01-02T10:44:01.103Z,2.10
2023-01-02T10:46:51.338Z,2.90
2023-01-02T10:49:29.359Z,3.08
2023-01-02T10:52:29.663Z,3.17
2023-01-02T10:55:04.457Z,2.63
2023-01-02T10:57:45.344Z,3.58
2023-01-02T11:00:38.911Z,3.75
2023-01-02T11:03:26.722Z,2.78
2023-01-02T11:06:23.218Z,2.97
2023-01-02T11:09:23.776Z,2.95
2023-01-02T11:12:20.226Z,2.33
2023-01-02T11:15:19.407Z,2.60
2023-01-02T11:18:02.953Z,2.20
2023-01-02T11:20:41.719Z,2.72
2023-01-02T11:23:23.662Z,2.70
2023-01-02T11:25:57.259Z,2.42
2023-01-02T11:28:35.613Z,2.55
2023-01-02T11:31:21.601Z,2.03
2023-01-02T11:34:10.500Z,2.45
2023-01-02T11:36:46.086Z,1.98
2023-01-02T11:39:26.312Z,1.88
2023-01-02T11:42:35.881Z,2.20
2023-01-02T11:45:26.892Z,2.28
2023-01-02T11:48:01.798Z,3.00
2023-01-02T11:50:38.495Z,2.53
2023-01-02T11:53:33.541Z,1.90
2023-01-02T11:56:37.629Z,2.00
2023-01-02T11:59:27.441Z,1.88
2023-01-02T12:02:24.037Z,1.77
2023-01-02T12:05:17.871Z,1.70
2023-01-02T12:08:05.194Z,1.77
2023-01-02T12:10:50.522Z,1.60
2023-01-02T12:13:39.593Z,1.50
2023-01-02T12:16:49.277Z,2.30
2023-01-02T12:20:09.793Z,1.90
2023-01-02T12:25:41.387Z,1.67
2023-01-02T12:28:53.593Z,1.85
2023-01-02T12:31:41.982Z,1.63
2023-01-02T12:34:57.341Z,1.38
2023-01-02T12:37:58.237Z,1.60
2023-01-02T12:41:15.694Z,1.85
2023-01-02T12:44:15.006Z,1.77
2023-01-02T12:47:15.125Z,1.55
2023-01-02T12:50:22.403Z,1.95
2023-01-02T12:53:23.809Z,2.15
2023-01-02T12:56:19.612Z,1.50
2023-01-02T12:59:42.498Z,1.80
2023-01-02T13:02:46.811Z,1.63
2023-01-02T13:05:24.610Z,1.73
2023-01-02T13:08:04.430Z,2.17
2023-01-02T13:10:39.556Z,1.55
2023-01-02T13:13:19.153Z,1.80
2023-01-02T13:16:03.202Z,1.90
2023-01-02T13:19:00.562Z,1.85
2023-01-02T13:21:58.585Z,1.55
2023-01-02T13:24:35.445Z,1.77
2023-01-02T13:27:06.122Z,1.50
2023-01-02T13:29:48.445Z,1.58
2023-01-02T13:32:29.781Z,1.60
2023-01-02T13:35:03.594Z,1.48
2023-01-02T13:37:44.597Z,1.80
2023-01-02T13:40:33.893Z,1.90
2023-01-02T13:43:12.769Z,1.63
2023-01-02T13:45:56.970Z,1.73
2023-01-02T13:48:55.258Z,1.70
2023-01-02T13:51:34.734Z,1.52
2023-01-02T13:54:16.688Z,1.48
2023-01-02T13:57:27.875Z,1.70
2023-01-02T14:00:07.558Z,1.50
2023-01-02T14:03:05.711Z,1.35
2023-01-02T14:06:03.263Z,1.50
2023-01-02T14:08:47.906Z,1.65
2023-01-02T14:11:55.756Z,1.35
2023-01-02T14:14:34.422Z,1.30
2023-01-02T14:17:26.009Z,1.33
2023-01-02T14:20:19.198Z,1.20
2023-01-02T14:22:56.157Z,1.33
2023-01-02T14:25:28.921Z,1.40
2023-01-02T14:28:07.837Z,1.50
2023-01-02T14:30:42.838Z,1.38
2023-01-02T14:33:23.715Z,1.58
2023-01-02T14:36:02.102Z,1.48
2023-01-02T14:38:42.479Z,1.35
2023-01-02T14:42:13.807Z,1.83
2023-01-02T14:44:53.385Z,1.50
2023-01-02T14:47:40.871Z,1.48
2023-01-02T14:50:23.954Z,1.70
2023-01-02T14:53:03.596Z,1.55
2023-01-02T14:55:42.285Z,1.55
2023-01-02T14:58:29.936Z,1.80
2023-01-02T15:01:04.343Z,1.70
2023-01-02T15:03:51.679Z,1.67
2023-01-02T15:06:31.143Z,1.90
2023-01-02T15:09:12.624Z,1.80
2023-01-02T15:12:13.133Z,1.45
2023-01-02T15:15:13.631Z,1.80
2023-01-02T15:17:45.799Z,1.40
2023-01-02T15:20:29.382Z,1.45
2023-01-02T15:23:03.520Z,1.60
2023-01-02T15:25:48.026Z,1.65
2023-01-02T15:28:36.827Z,1.35
2023-01-02T15:31:17.720Z,1.75
2023-01-02T15:33:54.928Z,1.75
2023-01-02T15:36:47.311Z,1.85
2023-01-02T15:39:40.141Z,1.60
2023-01-02T15:42:42.882Z,1.70
2023-01-02T15:45:16.428Z,1.48
2023-01-02T15:47:56.410Z,1.27
2023-01-02T15:53:29.416Z,1.55
2023-01-02T15:56:02.711Z,1.65
2023-01-02T15:58:37.598Z,1.30
2023-01-02T16:01:23.160Z,1.40
2023-01-02T16:04:04.458Z,1.50
2023-01-02T16:06:43.823Z,1.42
2023-01-02T16:09:33.260Z,1.70
2023-01-02T16:12:06.374Z,1.85
2023-01-02T16:14:45.529Z,1.50
2023-01-02T16:17:40.779Z,1.90
2023-01-02T16:20:20.733Z,1.60
2023-01-02T16:23:01.297Z,1.52
2023-01-02T16:25:33.738Z,1.55
2023-01-02T16:28:35.664Z,1.70
2023-01-02T16:31:11.969Z,1.92
2023-01-02T16:33:45.037Z,1.70
2023-01-02T16:36:18.659Z,1.50
2023-01-02T16:39:03.732Z,1.70
2023-01-02T16:41:45.656Z,1.60
2023-01-02T16:44:23.388Z,1.60
2023-01-02T16:47:08.221Z,1.65
2023-01-02T16:49:41.999Z,1.45
2023-01-02T16:52:12.975Z,1.60
2023-01-02T16:54:43.008Z,1.52
2023-01-02T16:57:24.546Z,1.55
2023-01-02T17:00:00.523Z,1.33
2023-01-02T17:02:34.284Z,1.45
2023-01-02T17:05:20.131Z,1.80
2023-01-02T17:07:50.547Z,1.50
2023-01-02T17:10:30.403Z,1.60
2023-01-02T17:13:05.256Z,1.60
2023-01-02T17:15:35.475Z,1.40
2023-01-02T17:18:13.239Z,1.80
2023-01-02T17:20:52.609Z,1.80
2023-01-02T17:23:26.686Z,1.60
2023-01-02T17:26:03.144Z,1.48
2023-01-02T17:28:34.458Z,1.60
2023-01-02T17:31:06.650Z,1.50
2023-01-02T17:33:42.942Z,1.67
2023-01-02T17:36:12.939Z,1.58
2023-01-02T17:38:45.663Z,1.70
2023-01-02T17:41:18.937Z,1.58
2023-01-02T17:44:02.718Z,1.75
2023-01-02T17:47:09.145Z,1.63
2023-01-02T17:49:32.665Z,1.45
2023-01-02T17:52:06.461Z,1.40
2023-01-02T17:54:40.139Z,1.48
2023-01-02T17:57:12.050Z,1.42
2023-01-02T17:59:43.119Z,1.73
2023-01-02T18:02:20.280Z,1.98
2023-01-02T18:04:56.152Z,2.05
2023-01-02T18:07:26.604Z,2.13
2023-01-02T18:10:08.677Z,2.13
2023-01-02T18:12:52.878Z,1.98
2023-01-02T18:15:28.879Z,1.90
2023-01-02T18:18:19.481Z,2.03
2023-01-02T18:20:52.794Z,2.00
2023-01-02T18:23:23.372Z,1.60
2023-01-02T18:25:54.007Z,2.20
2023-01-02T18:28:30.615Z,1.70
2023-01-02T18:31:06.269Z,1.83
2023-01-02T18:36:22.654Z,1.83
2023-01-02T18:39:32.421Z,1.58
2023-01-02T18:42:20.947Z,1.35
2023-01-02T18:45:15.382Z,1.52
2023-01-02T18:47:56.706Z,1.63
2023-01-02T18:50:36.159Z,1.70
2023-01-02T18:53:21.264Z,1.85
2023-01-02T18:56:27.640Z,1.75
2023-01-02T18:59:15.307Z,1.80
2023-01-02T19:01:51.805Z,1.50
2023-01-02T19:04:28.662Z,1.30
2023-01-02T19:07:19.461Z,1.48
2023-01-02T19:09:49.600Z,1.60
2023-01-02T19:12:46.935Z,1.65
2023-01-02T19:15:34.741Z,1.60
2023-01-02T19:18:31.177Z,1.80
2023-01-02T19:21:10.146Z,1.60
2023-01-02T19:24:09.918Z,1.50
2023-01-02T19:26:51.489Z,1.67
2023-01-02T19:29:43.342Z,1.42
2023-01-02T19:32:32.954Z,1.50
2023-01-02T19:35:26.453Z,2.00
2023-01-02T19:37:58.019Z,1.85
2023-01-02T19:40:28.455Z,1.77
2023-01-02T19:43:03.900Z,1.90
2023-01-02T19:45:40.220Z,1.42
2023-01-02T19:48:19.221Z,1.40
2023-01-02T19:50:54.088Z,1.27
2023-01-02T19:53:25.264Z,1.58
2023-01-02T19:56:07.879Z,1.58
2023-01-02T19:58:42.409Z,1.58
2023-01-02T20:01:18.879Z,1.30
2023-01-02T20:03:56.149Z,1.48
2023-01-02T20:06:27.150Z,1.52
2023-01-02T20:08:59.186Z,1.98
2023-01-02T20:12:07.705Z,1.65
2023-01-02T20:14:38.297Z,1.58
2023-01-02T20:17:12.828Z,1.65
2023-01-02T20:19:46.070Z,1.70
2023-01-02T20:22:20.470Z,1.60
2023-01-02T20:24:59.038Z,1.63
2023-01-02T20:27:29.655Z,1.58
2023-01-02T20:29:59.732Z,1.73
2023-01-02T20:32:32.458Z,1.50
2023-01-02T20:35:06.055Z,1.77
2023-01-02T20:37:39.438Z,1.60
2023-01-02T20:40:10.140Z,1.75
2023-01-02T20:42:40.583Z,1.60
2023-01-02T20:45:16.536Z,1.60
2023-01-02T20:47:47.026Z,1.80
2023-01-02T20:50:21.847Z,2.30
2023-01-02T20:52:57.314Z,1.88
2023-01-02T20:55:33.329Z,1.80
2023-01-02T20:58:05.649Z,1.77
2023-01-02T21:00:35.994Z,2.20
2023-01-02T21:03:06.738Z,1.83
2023-01-02T21:05:43.225Z,1.73
2023-01-02T21:08:13.943Z,1.80
2023-01-02T21:10:47.134Z,1.70
2023-01-02T21:13:20.240Z,1.80
2023-01-02T21:15:56.477Z,1.85
2023-01-02T21:18:35.512Z,1.73
2023-01-02T21:21:11.173Z,2.38
2023-01-02T21:23:45.057Z,2.17
2023-01-02T21:26:19.629Z,1.85
2023-01-02T21:28:54.169Z,2.10
2023-01-02T21:31:24.496Z,1.75
2023-01-02T21:33:54.955Z,2.00
2023-01-02T21:36:27.939Z,2.00
2023-01-02T21:39:01.401Z,1.80
2023-01-02T21:41:49.533Z,2.17
2023-01-02T21:44:19.999Z,2.13
2023-01-02T21:46:54.006Z,2.20
2023-01-02T21:49:24.608Z,2.10
2023-01-02T21:52:01.179Z,2.63
2023-01-02T21:54:32.089Z,2.22
2023-01-02T21:57:07.772Z,2.40
2023-01-02T21:59:41.064Z,2.45
2023-01-02T22:02:16.915Z,2.25
2023-01-02T22:04:47.536Z,2.50
2023-01-02T22:07:32.445Z,3.42
2023-01-02T22:10:04.636Z,5.00
2023-01-02T22:12:41.504Z,3.80
2023-01-02T22:15:16.845Z,2.00
2023-01-02T22:17:47.830Z,1.80
2023-01-02T22:20:21.283Z,1.40
2023-01-02T22:22:56.209Z,1.55
2023-01-02T22:25:30.761Z,1.35
2023-01-02T22:28:03.767Z,1.30
2023-01-02T22:30:40.373Z,1.67
2023-01-02T22:33:13.379Z,1.90
2023-01-02T22:35:46.226Z,2.00
2023-01-02T22:38:23.790Z,2.30
2023-01-02T22:40:54.229Z,2.28
2023-01-02T22:43:28.168Z,2.90
2023-01-02T22:46:04.547Z,3.13
2023-01-02T22:48:43.925Z,3.60
2023-01-02T22:51:20.311Z,3.88
2023-01-02T22:54:10.747Z,4.00
2023-01-02T22:56:40.759Z,3.90
2023-01-02T22:59:14.505Z,5.30
2023-01-02T23:01:48.954Z,5.00
2023-01-02T23:04:29.799Z,4.80
2023-01-02T23:07:23.338Z,4.50
2023-01-02T23:09:57.332Z,3.92
2023-01-02T23:12:30.060Z,3.42
2023-01-02T23:15:00.524Z,2.72
2023-01-02T23:17:48.528Z,3.30
2023-01-02T23:20:19.127Z,3.50
2023-01-02T23:22:51.753Z,4.32
2023-01-02T23:25:25.815Z,4.38
2023-01-02T23:27:55.894Z,6.18
2023-01-02T23:32:55.648Z,7.72
2023-01-02T23:35:34.417Z,9.00
2023-01-02T23:38:04.834Z,9.52
2023-01-02T23:40:37.428Z,6.53
2023-01-02T23:43:10.845Z,5.60
2023-01-02T23:45:43.691Z,6.00
2023-01-02T23:48:14.169Z,4.75
2023-01-02T23:50:49.889Z,4.82
2023-01-02T23:53:20.314Z,4.90
2023-01-02T23:55:50.433Z,4.13
2023-01-02T23:58:34.166Z,3.97
